SWA2105 KDEN-KTPA
Flight info
| Callsign | SWA2105 |
|---|---|
| Flight time | 2h 44m |
| Altitude | 37000 |
| Route | EPKEE7 DUUZE BVO LIT ACORI MAATY5 |
| Aircraft | B38M/M-SADE2E3GHIJ4J7P2RWZ/LB1D1 |
Departure
| Time | 2026-05-06 17:01 |
|---|---|
| Airport | Denver International Airport (KDEN) |
Arrival
| Time | 2026-05-06 19:45 |
|---|---|
| Airport | Tampa International Airport (KTPA) |
| Time | Latitude | Longitude | Altitude | Speed | Heading |
|---|---|---|---|---|---|
| 2026-05-06 16:02 | 39.86240 | -104.67100 | 5379 ft | 0 kts | 0° |
| 2026-05-06 16:42 | 39.86230 | -104.67100 | 5379 ft | 4 kts | 0° |
| 2026-05-06 16:42 | 39.86203 | -104.67101 | 5375 ft | 4 kts | 0° |
| 2026-05-06 16:42 | 39.86176 | -104.67101 | 5378 ft | 4 kts | 0° |
| 2026-05-06 16:43 | 39.86168 | -104.67101 | 5378 ft | 0 kts | 0° |
| 2026-05-06 16:48 | 39.86169 | -104.67101 | 5378 ft | 1 kts | 0° |
| 2026-05-06 16:48 | 39.86174 | -104.67093 | 5378 ft | 2 kts | 63° |
| 2026-05-06 16:48 | 39.86172 | -104.67052 | 5378 ft | 7 kts | 105° |
| 2026-05-06 16:49 | 39.86153 | -104.66973 | 5378 ft | 11 kts | 104° |
| 2026-05-06 16:49 | 39.86142 | -104.66854 | 5375 ft | 15 kts | 95° |
| 2026-05-06 16:49 | 39.86133 | -104.66702 | 5378 ft | 14 kts | 94° |
| 2026-05-06 16:49 | 39.86123 | -104.66565 | 5376 ft | 16 kts | 98° |
| 2026-05-06 16:50 | 39.86108 | -104.66410 | 5377 ft | 18 kts | 90° |
| 2026-05-06 16:50 | 39.86117 | -104.66262 | 5385 ft | 15 kts | 57° |
| 2026-05-06 16:50 | 39.86229 | -104.66233 | 5384 ft | 19 kts | 2° |
| 2026-05-06 16:50 | 39.86372 | -104.66224 | 5385 ft | 20 kts | 1° |
| 2026-05-06 16:51 | 39.86507 | -104.66229 | 5383 ft | 20 kts | 359° |
| 2026-05-06 16:51 | 39.86667 | -104.66222 | 5379 ft | 26 kts | 2° |
| 2026-05-06 16:51 | 39.86850 | -104.66221 | 5372 ft | 23 kts | 360° |
| 2026-05-06 16:51 | 39.86976 | -104.66222 | 5368 ft | 15 kts | 0° |
| 2026-05-06 16:52 | 39.87099 | -104.66220 | 5368 ft | 20 kts | 0° |
| 2026-05-06 16:52 | 39.87256 | -104.66218 | 5363 ft | 23 kts | 1° |
| 2026-05-06 16:52 | 39.87372 | -104.66194 | 5362 ft | 15 kts | 47° |
| 2026-05-06 16:52 | 39.87398 | -104.66096 | 5361 ft | 6 kts | 38° |
| 2026-05-06 16:53 | 39.87413 | -104.66089 | 5361 ft | 0 kts | 4° |
| 2026-05-06 16:58 | 39.87419 | -104.66089 | 5358 ft | 2 kts | 4° |
| 2026-05-06 16:59 | 39.87453 | -104.66091 | 5362 ft | 8 kts | 352° |
| 2026-05-06 16:59 | 39.87539 | -104.66098 | 5361 ft | 14 kts | 355° |
| 2026-05-06 16:59 | 39.87580 | -104.66153 | 5360 ft | 9 kts | 284° |
| 2026-05-06 16:59 | 39.87629 | -104.66207 | 5363 ft | 11 kts | 345° |
| 2026-05-06 17:00 | 39.87716 | -104.66214 | 5362 ft | 13 kts | 2° |
| 2026-05-06 17:00 | 39.87751 | -104.66140 | 5362 ft | 14 kts | 87° |
| 2026-05-06 17:00 | 39.87754 | -104.65809 | 5360 ft | 72 kts | 90° |
| 2026-05-06 17:00 | 39.87747 | -104.64845 | 5346 ft | 138 kts | 91° |
| 2026-05-06 17:01 | 39.87736 | -104.63393 | 5489 ft | 175 kts | 93° |
| 2026-05-06 17:01 | 39.87694 | -104.61770 | 6174 ft | 177 kts | 88° |
| 2026-05-06 17:01 | 39.87681 | -104.60164 | 6887 ft | 186 kts | 90° |
| 2026-05-06 17:01 | 39.87289 | -104.58436 | 7299 ft | 212 kts | 111° |
| 2026-05-06 17:02 | 39.86683 | -104.56587 | 7705 ft | 235 kts | 112° |
| 2026-05-06 17:02 | 39.85947 | -104.54531 | 8107 ft | 259 kts | 112° |
| 2026-05-06 17:02 | 39.85184 | -104.52383 | 8961 ft | 268 kts | 113° |
| 2026-05-06 17:02 | 39.84375 | -104.50103 | 9568 ft | 285 kts | 113° |
| 2026-05-06 17:03 | 39.83539 | -104.47742 | 10414 ft | 291 kts | 113° |
| 2026-05-06 17:03 | 39.82665 | -104.45273 | 10921 ft | 311 kts | 114° |
| 2026-05-06 17:03 | 39.81732 | -104.42638 | 11353 ft | 330 kts | 114° |
| 2026-05-06 17:03 | 39.80738 | -104.39839 | 11924 ft | 343 kts | 114° |
| 2026-05-06 17:04 | 39.79730 | -104.36992 | 12707 ft | 347 kts | 114° |
| 2026-05-06 17:04 | 39.78711 | -104.34123 | 13447 ft | 353 kts | 114° |
| 2026-05-06 17:04 | 39.77670 | -104.31198 | 14123 ft | 360 kts | 115° |
| 2026-05-06 17:04 | 39.76612 | -104.28224 | 14807 ft | 365 kts | 115° |
| 2026-05-06 17:05 | 39.75536 | -104.25202 | 15456 ft | 371 kts | 115° |
| 2026-05-06 17:05 | 39.74447 | -104.22148 | 16140 ft | 376 kts | 115° |
| 2026-05-06 17:05 | 39.73337 | -104.19038 | 16751 ft | 382 kts | 116° |
| 2026-05-06 17:05 | 39.72210 | -104.15884 | 17375 ft | 387 kts | 116° |
| 2026-05-06 17:06 | 39.71067 | -104.12690 | 17977 ft | 392 kts | 116° |
| 2026-05-06 17:06 | 39.69907 | -104.09451 | 18548 ft | 398 kts | 116° |
| 2026-05-06 17:06 | 39.68735 | -104.06184 | 19136 ft | 402 kts | 117° |
| 2026-05-06 17:06 | 39.67547 | -104.02872 | 19740 ft | 405 kts | 117° |
| 2026-05-06 17:07 | 39.66350 | -103.99541 | 20255 ft | 410 kts | 117° |
| 2026-05-06 17:07 | 39.65138 | -103.96174 | 20862 ft | 413 kts | 117° |
| 2026-05-06 17:07 | 39.63916 | -103.92780 | 21379 ft | 417 kts | 117° |
| 2026-05-06 17:07 | 39.62680 | -103.89354 | 21917 ft | 421 kts | 118° |
| 2026-05-06 17:08 | 39.61435 | -103.85902 | 22423 ft | 425 kts | 118° |
| 2026-05-06 17:08 | 39.60177 | -103.82424 | 22918 ft | 428 kts | 118° |
| 2026-05-06 17:08 | 39.59016 | -103.78853 | 23402 ft | 434 kts | 111° |
| 2026-05-06 17:08 | 39.58018 | -103.75139 | 23890 ft | 437 kts | 112° |
| 2026-05-06 17:09 | 39.56990 | -103.71425 | 24342 ft | 440 kts | 113° |
| 2026-05-06 17:09 | 39.55937 | -103.67685 | 24798 ft | 443 kts | 114° |
| 2026-05-06 17:09 | 39.54873 | -103.63935 | 25239 ft | 446 kts | 114° |
| 2026-05-06 17:09 | 39.53795 | -103.60144 | 25657 ft | 449 kts | 114° |
| 2026-05-06 17:10 | 39.52708 | -103.56334 | 26054 ft | 453 kts | 114° |
| 2026-05-06 17:10 | 39.51610 | -103.52491 | 26454 ft | 456 kts | 115° |
| 2026-05-06 17:10 | 39.50507 | -103.48635 | 26847 ft | 459 kts | 115° |
| 2026-05-06 17:10 | 39.49393 | -103.44744 | 27237 ft | 462 kts | 115° |
| 2026-05-06 17:11 | 39.48258 | -103.40789 | 27600 ft | 465 kts | 115° |
| 2026-05-06 17:11 | 39.47141 | -103.36901 | 27962 ft | 468 kts | 115° |
| 2026-05-06 17:11 | 39.45991 | -103.32905 | 28323 ft | 470 kts | 115° |
| 2026-05-06 17:11 | 39.44844 | -103.28926 | 28673 ft | 473 kts | 116° |
| 2026-05-06 17:12 | 39.43690 | -103.24929 | 29015 ft | 476 kts | 116° |
| 2026-05-06 17:12 | 39.42526 | -103.20903 | 29345 ft | 478 kts | 116° |
| 2026-05-06 17:12 | 39.41358 | -103.16865 | 29650 ft | 481 kts | 116° |
| 2026-05-06 17:12 | 39.40179 | -103.12804 | 29950 ft | 484 kts | 116° |
| 2026-05-06 17:13 | 39.38995 | -103.08723 | 30284 ft | 486 kts | 117° |
| 2026-05-06 17:13 | 39.37802 | -103.04620 | 30565 ft | 489 kts | 117° |
| 2026-05-06 17:13 | 39.37006 | -103.01884 | 30750 ft | 492 kts | 117° |
| 2026-05-06 17:13 | 39.35384 | -102.96339 | 31095 ft | 495 kts | 118° |
| 2026-05-06 17:14 | 39.34449 | -102.93669 | 31233 ft | 492 kts | 123° |
| 2026-05-06 17:14 | 39.32916 | -102.89700 | 31508 ft | 495 kts | 123° |
| 2026-05-06 17:14 | 39.31366 | -102.85713 | 31771 ft | 497 kts | 124° |
| 2026-05-06 17:14 | 39.29802 | -102.81717 | 32028 ft | 500 kts | 124° |
| 2026-05-06 17:15 | 39.28227 | -102.77702 | 32256 ft | 503 kts | 124° |
| 2026-05-06 17:15 | 39.26640 | -102.73662 | 32496 ft | 506 kts | 124° |
| 2026-05-06 17:15 | 39.25043 | -102.69601 | 32769 ft | 508 kts | 124° |
| 2026-05-06 17:15 | 39.23440 | -102.65533 | 33109 ft | 509 kts | 124° |
| 2026-05-06 17:16 | 39.21834 | -102.61460 | 33439 ft | 509 kts | 124° |
| 2026-05-06 17:16 | 39.20227 | -102.57393 | 33725 ft | 510 kts | 125° |
| 2026-05-06 17:16 | 39.18594 | -102.53263 | 34040 ft | 511 kts | 125° |
| 2026-05-06 17:16 | 39.16998 | -102.49234 | 34345 ft | 511 kts | 125° |
| 2026-05-06 17:17 | 39.15359 | -102.45100 | 34658 ft | 511 kts | 125° |
| 2026-05-06 17:17 | 39.13734 | -102.41017 | 34945 ft | 512 kts | 125° |
| 2026-05-06 17:17 | 39.12104 | -102.36950 | 35222 ft | 512 kts | 125° |
| 2026-05-06 17:17 | 39.10468 | -102.32866 | 35520 ft | 512 kts | 125° |
| 2026-05-06 17:18 | 39.08832 | -102.28792 | 35766 ft | 513 kts | 125° |
| 2026-05-06 17:18 | 39.07189 | -102.24702 | 36016 ft | 514 kts | 125° |
| 2026-05-06 17:18 | 39.05546 | -102.20617 | 36286 ft | 514 kts | 125° |
| 2026-05-06 17:18 | 39.03905 | -102.16544 | 36519 ft | 514 kts | 125° |
| 2026-05-06 17:19 | 39.02255 | -102.12453 | 36757 ft | 514 kts | 126° |
| 2026-05-06 17:19 | 39.00611 | -102.08384 | 37043 ft | 513 kts | 126° |
| 2026-05-06 17:19 | 38.98966 | -102.04314 | 37213 ft | 513 kts | 126° |
| 2026-05-06 17:20 | 38.95693 | -101.96238 | 37199 ft | 506 kts | 127° |
| 2026-05-06 17:20 | 38.92423 | -101.88193 | 37199 ft | 511 kts | 127° |
| 2026-05-06 17:21 | 38.89130 | -101.80109 | 37195 ft | 511 kts | 127° |
| 2026-05-06 17:21 | 38.85826 | -101.72015 | 37192 ft | 512 kts | 127° |
| 2026-05-06 17:22 | 38.82936 | -101.63562 | 37212 ft | 520 kts | 121° |
| 2026-05-06 17:22 | 38.80166 | -101.55000 | 37198 ft | 520 kts | 121° |
| 2026-05-06 17:23 | 38.77392 | -101.46433 | 37199 ft | 521 kts | 121° |
| 2026-05-06 17:23 | 38.74609 | -101.37860 | 37203 ft | 521 kts | 122° |
| 2026-05-06 17:24 | 38.71815 | -101.29278 | 37204 ft | 522 kts | 122° |
| 2026-05-06 17:24 | 38.68999 | -101.20657 | 37201 ft | 522 kts | 122° |
| 2026-05-06 17:25 | 38.66215 | -101.12160 | 37209 ft | 523 kts | 122° |
| 2026-05-06 17:25 | 38.63375 | -101.03517 | 37212 ft | 523 kts | 122° |
| 2026-05-06 17:26 | 38.60549 | -100.94943 | 37213 ft | 524 kts | 122° |
| 2026-05-06 17:26 | 38.57712 | -100.86362 | 37220 ft | 525 kts | 123° |
| 2026-05-06 17:27 | 38.54861 | -100.77761 | 37221 ft | 526 kts | 123° |
| 2026-05-06 17:27 | 38.52001 | -100.69164 | 37220 ft | 527 kts | 123° |
| 2026-05-06 17:28 | 38.49128 | -100.60551 | 37219 ft | 528 kts | 123° |
| 2026-05-06 17:28 | 38.46243 | -100.51926 | 37222 ft | 529 kts | 124° |
| 2026-05-06 17:29 | 38.43344 | -100.43289 | 37212 ft | 530 kts | 124° |
| 2026-05-06 17:29 | 38.40432 | -100.34637 | 37211 ft | 531 kts | 124° |
| 2026-05-06 17:30 | 38.37516 | -100.25997 | 37209 ft | 531 kts | 124° |
| 2026-05-06 17:30 | 38.34591 | -100.17359 | 37215 ft | 532 kts | 125° |
| 2026-05-06 17:31 | 38.31652 | -100.08703 | 37211 ft | 532 kts | 125° |
| 2026-05-06 17:31 | 38.28707 | -100.00057 | 37209 ft | 533 kts | 125° |
| 2026-05-06 17:32 | 38.25731 | -99.91342 | 37214 ft | 533 kts | 126° |
| 2026-05-06 17:32 | 38.22768 | -99.82698 | 37207 ft | 533 kts | 126° |
| 2026-05-06 17:33 | 38.19805 | -99.74075 | 37204 ft | 533 kts | 126° |
| 2026-05-06 17:33 | 38.16825 | -99.65428 | 37203 ft | 533 kts | 126° |
| 2026-05-06 17:34 | 38.13842 | -99.56801 | 37203 ft | 534 kts | 125° |
| 2026-05-06 17:34 | 38.10849 | -99.48169 | 37203 ft | 534 kts | 126° |
| 2026-05-06 17:35 | 38.07848 | -99.39535 | 37202 ft | 534 kts | 126° |
| 2026-05-06 17:35 | 38.04846 | -99.30928 | 37201 ft | 533 kts | 126° |
| 2026-05-06 17:36 | 38.00326 | -99.18013 | 37204 ft | 535 kts | 125° |
| 2026-05-06 17:36 | 37.97295 | -99.09387 | 37199 ft | 536 kts | 126° |
| 2026-05-06 17:37 | 37.94251 | -99.00743 | 37203 ft | 537 kts | 126° |
| 2026-05-06 17:37 | 37.91203 | -98.92119 | 37202 ft | 537 kts | 127° |
| 2026-05-06 17:38 | 37.88149 | -98.83499 | 37202 ft | 537 kts | 127° |
| 2026-05-06 17:38 | 37.85087 | -98.74882 | 37200 ft | 537 kts | 127° |
| 2026-05-06 17:39 | 37.82008 | -98.66245 | 37204 ft | 539 kts | 127° |
| 2026-05-06 17:39 | 37.78901 | -98.57549 | 37201 ft | 539 kts | 127° |
| 2026-05-06 17:40 | 37.75825 | -98.48968 | 37201 ft | 540 kts | 127° |
| 2026-05-06 17:40 | 37.72702 | -98.40281 | 37201 ft | 540 kts | 127° |
| 2026-05-06 17:41 | 37.69593 | -98.31656 | 37202 ft | 540 kts | 127° |
| 2026-05-06 17:41 | 37.66476 | -98.23036 | 37194 ft | 539 kts | 127° |
| 2026-05-06 17:42 | 37.63353 | -98.14422 | 37184 ft | 539 kts | 127° |
| 2026-05-06 17:42 | 37.60229 | -98.05831 | 37186 ft | 539 kts | 127° |
| 2026-05-06 17:43 | 37.57095 | -97.97235 | 37187 ft | 539 kts | 127° |
| 2026-05-06 17:43 | 37.53957 | -97.88653 | 37191 ft | 539 kts | 127° |
| 2026-05-06 17:44 | 37.50815 | -97.80085 | 37178 ft | 539 kts | 127° |
| 2026-05-06 17:44 | 37.48224 | -97.73036 | 37189 ft | 539 kts | 128° |
| 2026-05-06 17:45 | 37.45064 | -97.64462 | 37178 ft | 539 kts | 128° |
| 2026-05-06 17:45 | 37.41902 | -97.55911 | 37180 ft | 539 kts | 128° |
| 2026-05-06 17:46 | 37.38734 | -97.47362 | 37176 ft | 539 kts | 128° |
| 2026-05-06 17:46 | 37.35562 | -97.38828 | 37172 ft | 539 kts | 128° |
| 2026-05-06 17:47 | 37.32894 | -97.31666 | 37175 ft | 541 kts | 128° |
| 2026-05-06 17:47 | 37.29699 | -97.23115 | 37178 ft | 541 kts | 128° |
| 2026-05-06 17:48 | 37.26499 | -97.14573 | 37178 ft | 541 kts | 128° |
| 2026-05-06 17:48 | 37.23290 | -97.06031 | 37175 ft | 541 kts | 128° |
| 2026-05-06 17:49 | 37.20074 | -96.97495 | 37176 ft | 541 kts | 128° |
| 2026-05-06 17:49 | 37.16858 | -96.88979 | 37175 ft | 541 kts | 128° |
| 2026-05-06 17:50 | 37.13631 | -96.80460 | 37172 ft | 540 kts | 128° |
| 2026-05-06 17:50 | 37.10403 | -96.71962 | 37171 ft | 540 kts | 128° |
| 2026-05-06 17:51 | 37.07170 | -96.63471 | 37158 ft | 540 kts | 128° |
| 2026-05-06 17:51 | 37.03929 | -96.54982 | 37170 ft | 540 kts | 128° |
| 2026-05-06 17:52 | 37.00688 | -96.46511 | 37167 ft | 539 kts | 128° |
| 2026-05-06 17:52 | 36.97423 | -96.38003 | 37164 ft | 540 kts | 128° |
| 2026-05-06 17:53 | 36.94171 | -96.29550 | 37168 ft | 539 kts | 129° |
| 2026-05-06 17:53 | 36.90914 | -96.21105 | 37160 ft | 539 kts | 129° |
| 2026-05-06 17:54 | 36.87650 | -96.12662 | 37163 ft | 539 kts | 129° |
| 2026-05-06 17:54 | 36.84385 | -96.04243 | 37161 ft | 539 kts | 129° |
| 2026-05-06 17:55 | 36.82599 | -96.00201 | 37164 ft | 525 kts | 135° |
| 2026-05-06 17:55 | 36.80692 | -95.96315 | 37169 ft | 525 kts | 136° |
| 2026-05-06 17:55 | 36.76842 | -95.88540 | 37170 ft | 528 kts | 136° |
| 2026-05-06 17:56 | 36.72974 | -95.80755 | 37159 ft | 528 kts | 136° |
| 2026-05-06 17:56 | 36.69105 | -95.72989 | 37160 ft | 527 kts | 136° |
| 2026-05-06 17:57 | 36.65235 | -95.65238 | 37156 ft | 527 kts | 136° |
| 2026-05-06 17:57 | 36.61358 | -95.57492 | 37153 ft | 527 kts | 136° |
| 2026-05-06 17:58 | 36.57480 | -95.49760 | 37149 ft | 527 kts | 136° |
| 2026-05-06 17:58 | 36.53591 | -95.42024 | 37144 ft | 527 kts | 136° |
| 2026-05-06 17:59 | 36.49703 | -95.34308 | 37146 ft | 527 kts | 136° |
| 2026-05-06 17:59 | 36.45785 | -95.26550 | 37148 ft | 527 kts | 136° |
| 2026-05-06 18:00 | 36.41884 | -95.18844 | 37145 ft | 526 kts | 136° |
| 2026-05-06 18:00 | 36.38007 | -95.11201 | 37146 ft | 527 kts | 136° |
| 2026-05-06 18:01 | 36.34061 | -95.03443 | 37149 ft | 528 kts | 136° |
| 2026-05-06 18:01 | 36.30140 | -94.95751 | 37150 ft | 528 kts | 136° |
| 2026-05-06 18:02 | 36.26206 | -94.88048 | 37145 ft | 530 kts | 136° |
| 2026-05-06 18:02 | 36.22253 | -94.80327 | 37146 ft | 530 kts | 136° |
| 2026-05-06 18:03 | 36.18307 | -94.72638 | 37145 ft | 529 kts | 136° |
| 2026-05-06 18:03 | 36.14354 | -94.64950 | 37139 ft | 529 kts | 136° |
| 2026-05-06 18:04 | 36.10398 | -94.57276 | 37136 ft | 529 kts | 136° |
| 2026-05-06 18:04 | 36.06429 | -94.49594 | 37141 ft | 531 kts | 136° |
| 2026-05-06 18:05 | 36.02451 | -94.41910 | 37136 ft | 531 kts | 136° |
| 2026-05-06 18:05 | 35.98468 | -94.34237 | 37126 ft | 531 kts | 136° |
| 2026-05-06 18:06 | 35.94483 | -94.26572 | 37127 ft | 530 kts | 136° |
| 2026-05-06 18:06 | 35.90506 | -94.18940 | 37117 ft | 526 kts | 136° |
| 2026-05-06 18:07 | 35.86546 | -94.11363 | 37115 ft | 526 kts | 137° |
| 2026-05-06 18:07 | 35.82561 | -94.03750 | 37112 ft | 525 kts | 137° |
| 2026-05-06 18:08 | 35.78589 | -93.96183 | 37104 ft | 526 kts | 137° |
| 2026-05-06 18:08 | 35.74622 | -93.88638 | 37122 ft | 525 kts | 137° |
| 2026-05-06 18:09 | 35.70646 | -93.81093 | 37104 ft | 524 kts | 137° |
| 2026-05-06 18:09 | 35.66674 | -93.73572 | 37100 ft | 524 kts | 137° |
| 2026-05-06 18:10 | 35.62700 | -93.66066 | 37108 ft | 524 kts | 137° |
| 2026-05-06 18:10 | 35.58718 | -93.58559 | 37097 ft | 525 kts | 137° |
| 2026-05-06 18:11 | 35.55368 | -93.52255 | 37109 ft | 526 kts | 137° |
| 2026-05-06 18:11 | 35.50726 | -93.43542 | 37102 ft | 525 kts | 136° |
| 2026-05-06 18:12 | 35.46725 | -93.36047 | 37073 ft | 524 kts | 136° |
| 2026-05-06 18:12 | 35.42702 | -93.28528 | 37081 ft | 525 kts | 136° |
| 2026-05-06 18:13 | 35.38686 | -93.21040 | 37077 ft | 526 kts | 136° |
| 2026-05-06 18:13 | 35.34675 | -93.13576 | 37101 ft | 525 kts | 136° |
| 2026-05-06 18:14 | 35.30651 | -93.06102 | 37092 ft | 525 kts | 136° |
| 2026-05-06 18:14 | 35.26624 | -92.98642 | 37080 ft | 524 kts | 136° |
| 2026-05-06 18:15 | 35.22593 | -92.91187 | 37082 ft | 526 kts | 136° |
| 2026-05-06 18:15 | 35.18552 | -92.83731 | 37083 ft | 526 kts | 136° |
| 2026-05-06 18:16 | 35.14509 | -92.76286 | 37094 ft | 525 kts | 136° |
| 2026-05-06 18:16 | 35.10468 | -92.68863 | 37093 ft | 525 kts | 136° |
| 2026-05-06 18:17 | 35.06421 | -92.61443 | 37083 ft | 525 kts | 136° |
| 2026-05-06 18:17 | 35.02368 | -92.54028 | 37086 ft | 525 kts | 136° |
| 2026-05-06 18:18 | 34.98316 | -92.46626 | 37090 ft | 526 kts | 136° |
| 2026-05-06 18:18 | 34.94251 | -92.39216 | 37098 ft | 526 kts | 136° |
| 2026-05-06 18:19 | 34.90844 | -92.33018 | 37086 ft | 525 kts | 136° |
| 2026-05-06 18:19 | 34.86769 | -92.25617 | 37083 ft | 525 kts | 136° |
| 2026-05-06 18:20 | 34.82701 | -92.18243 | 37101 ft | 524 kts | 136° |
| 2026-05-06 18:20 | 34.78957 | -92.10516 | 37116 ft | 534 kts | 129° |
| 2026-05-06 18:21 | 34.75424 | -92.02562 | 37099 ft | 534 kts | 129° |
| 2026-05-06 18:21 | 34.71901 | -91.94609 | 37083 ft | 534 kts | 128° |
| 2026-05-06 18:22 | 34.68363 | -91.86646 | 37074 ft | 536 kts | 128° |
| 2026-05-06 18:22 | 34.64820 | -91.78688 | 37074 ft | 536 kts | 128° |
| 2026-05-06 18:23 | 34.61271 | -91.70733 | 37074 ft | 535 kts | 128° |
| 2026-05-06 18:23 | 34.57699 | -91.62746 | 37074 ft | 535 kts | 128° |
| 2026-05-06 18:24 | 34.54142 | -91.54811 | 37072 ft | 535 kts | 128° |
| 2026-05-06 18:24 | 34.50585 | -91.46894 | 37075 ft | 535 kts | 128° |
| 2026-05-06 18:25 | 34.47022 | -91.38982 | 37073 ft | 534 kts | 128° |
| 2026-05-06 18:25 | 34.43454 | -91.31077 | 37073 ft | 534 kts | 129° |
| 2026-05-06 18:26 | 34.39885 | -91.23189 | 37101 ft | 534 kts | 129° |
| 2026-05-06 18:26 | 34.36312 | -91.15305 | 37084 ft | 534 kts | 129° |
| 2026-05-06 18:27 | 34.32723 | -91.07410 | 37073 ft | 536 kts | 128° |
| 2026-05-06 18:27 | 34.29132 | -90.99526 | 37074 ft | 535 kts | 129° |
| 2026-05-06 18:28 | 34.25538 | -90.91651 | 37058 ft | 535 kts | 128° |
| 2026-05-06 18:28 | 34.21936 | -90.83780 | 37050 ft | 536 kts | 128° |
| 2026-05-06 18:29 | 34.18332 | -90.75922 | 37047 ft | 535 kts | 128° |
| 2026-05-06 18:29 | 34.14697 | -90.68010 | 37043 ft | 534 kts | 128° |
| 2026-05-06 18:30 | 34.11083 | -90.60167 | 37033 ft | 535 kts | 128° |
| 2026-05-06 18:30 | 34.07465 | -90.52329 | 37040 ft | 534 kts | 128° |
| 2026-05-06 18:31 | 34.03847 | -90.44509 | 37036 ft | 534 kts | 128° |
| 2026-05-06 18:31 | 34.00223 | -90.36693 | 37025 ft | 533 kts | 128° |
| 2026-05-06 18:32 | 33.96595 | -90.28889 | 37028 ft | 534 kts | 128° |
| 2026-05-06 18:32 | 33.92961 | -90.21085 | 37026 ft | 534 kts | 128° |
| 2026-05-06 18:33 | 33.89333 | -90.13313 | 37017 ft | 533 kts | 128° |
| 2026-05-06 18:33 | 33.85692 | -90.05531 | 37015 ft | 533 kts | 128° |
| 2026-05-06 18:34 | 33.82049 | -89.97758 | 36996 ft | 533 kts | 128° |
| 2026-05-06 18:34 | 33.78377 | -89.89947 | 37000 ft | 533 kts | 128° |
| 2026-05-06 18:35 | 33.74729 | -89.82200 | 36992 ft | 532 kts | 128° |
| 2026-05-06 18:35 | 33.71078 | -89.74463 | 36991 ft | 532 kts | 128° |
| 2026-05-06 18:36 | 33.67422 | -89.66731 | 36986 ft | 533 kts | 128° |
| 2026-05-06 18:36 | 33.63763 | -89.59013 | 36981 ft | 532 kts | 128° |
| 2026-05-06 18:37 | 33.60718 | -89.52602 | 36980 ft | 532 kts | 128° |
| 2026-05-06 18:37 | 33.56433 | -89.43600 | 36982 ft | 532 kts | 128° |
| 2026-05-06 18:38 | 33.52761 | -89.35901 | 36979 ft | 532 kts | 128° |
| 2026-05-06 18:38 | 33.49081 | -89.28205 | 36982 ft | 534 kts | 128° |
| 2026-05-06 18:39 | 33.45383 | -89.20487 | 36985 ft | 533 kts | 128° |
| 2026-05-06 18:40 | 33.39841 | -89.08951 | 36980 ft | 533 kts | 128° |
| 2026-05-06 18:40 | 33.36116 | -89.01216 | 36966 ft | 533 kts | 128° |
| 2026-05-06 18:41 | 33.32430 | -88.93581 | 36974 ft | 534 kts | 128° |
| 2026-05-06 18:41 | 33.28694 | -88.85858 | 36970 ft | 533 kts | 128° |
| 2026-05-06 18:42 | 33.24973 | -88.78181 | 36971 ft | 533 kts | 128° |
| 2026-05-06 18:42 | 33.21257 | -88.70533 | 36979 ft | 533 kts | 128° |
| 2026-05-06 18:43 | 33.17535 | -88.62886 | 36981 ft | 533 kts | 128° |
| 2026-05-06 18:43 | 33.13804 | -88.55237 | 36982 ft | 533 kts | 128° |
| 2026-05-06 18:44 | 33.10069 | -88.47598 | 36991 ft | 534 kts | 128° |
| 2026-05-06 18:44 | 33.06324 | -88.39954 | 36989 ft | 534 kts | 128° |
| 2026-05-06 18:45 | 33.02576 | -88.32318 | 37007 ft | 533 kts | 128° |
| 2026-05-06 18:45 | 32.98829 | -88.24703 | 36997 ft | 533 kts | 128° |
| 2026-05-06 18:46 | 32.95077 | -88.17091 | 37007 ft | 533 kts | 128° |
| 2026-05-06 18:46 | 32.91322 | -88.09490 | 37008 ft | 532 kts | 128° |
| 2026-05-06 18:47 | 32.87571 | -88.01915 | 37007 ft | 531 kts | 128° |
| 2026-05-06 18:47 | 32.83814 | -87.94338 | 37006 ft | 532 kts | 127° |
| 2026-05-06 18:48 | 32.80022 | -87.86710 | 37007 ft | 533 kts | 127° |
| 2026-05-06 18:48 | 32.76249 | -87.79135 | 37010 ft | 532 kts | 127° |
| 2026-05-06 18:49 | 32.72486 | -87.71597 | 37007 ft | 530 kts | 128° |
| 2026-05-06 18:49 | 32.68715 | -87.64056 | 37020 ft | 530 kts | 128° |
| 2026-05-06 18:50 | 32.65586 | -87.57812 | 37015 ft | 530 kts | 127° |
| 2026-05-06 18:50 | 32.61808 | -87.50287 | 37026 ft | 531 kts | 127° |
| 2026-05-06 18:51 | 32.58027 | -87.42771 | 37029 ft | 531 kts | 127° |
| 2026-05-06 18:51 | 32.54242 | -87.35261 | 37027 ft | 530 kts | 127° |
| 2026-05-06 18:52 | 32.50455 | -87.27763 | 37027 ft | 530 kts | 128° |
| 2026-05-06 18:52 | 32.46634 | -87.20215 | 37034 ft | 531 kts | 127° |
| 2026-05-06 18:53 | 32.42835 | -87.12722 | 37036 ft | 531 kts | 127° |
| 2026-05-06 18:53 | 32.39034 | -87.05241 | 37033 ft | 531 kts | 127° |
| 2026-05-06 18:54 | 32.35223 | -86.97756 | 37035 ft | 531 kts | 127° |
| 2026-05-06 18:54 | 32.31413 | -86.90287 | 37032 ft | 530 kts | 127° |
| 2026-05-06 18:55 | 32.27596 | -86.82822 | 37032 ft | 530 kts | 127° |
| 2026-05-06 18:55 | 32.23778 | -86.75367 | 37033 ft | 531 kts | 127° |
| 2026-05-06 18:56 | 32.19953 | -86.67915 | 37033 ft | 530 kts | 127° |
| 2026-05-06 18:56 | 32.16131 | -86.60482 | 37043 ft | 529 kts | 127° |
| 2026-05-06 18:57 | 32.12309 | -86.53065 | 37043 ft | 529 kts | 127° |
| 2026-05-06 18:57 | 32.08481 | -86.45650 | 37048 ft | 529 kts | 127° |
| 2026-05-06 18:58 | 32.04652 | -86.38243 | 37046 ft | 529 kts | 127° |
| 2026-05-06 18:58 | 32.00823 | -86.30851 | 37055 ft | 528 kts | 127° |
| 2026-05-06 18:59 | 31.96986 | -86.23459 | 37053 ft | 529 kts | 127° |
| 2026-05-06 18:59 | 31.93150 | -86.16081 | 37063 ft | 528 kts | 127° |
| 2026-05-06 19:00 | 31.89304 | -86.08701 | 37067 ft | 528 kts | 127° |
| 2026-05-06 19:00 | 31.85458 | -86.01332 | 37070 ft | 528 kts | 127° |
| 2026-05-06 19:01 | 31.81586 | -85.93929 | 37072 ft | 528 kts | 127° |
| 2026-05-06 19:01 | 31.77653 | -85.86646 | 37061 ft | 522 kts | 135° |
| 2026-05-06 19:01 | 31.75161 | -85.83661 | 37080 ft | 506 kts | 147° |
| 2026-05-06 19:02 | 31.72518 | -85.80910 | 37059 ft | 510 kts | 146° |
| 2026-05-06 19:02 | 31.67212 | -85.75381 | 37063 ft | 510 kts | 146° |
| 2026-05-06 19:03 | 31.61886 | -85.69888 | 37062 ft | 510 kts | 146° |
| 2026-05-06 19:03 | 31.56561 | -85.64407 | 37054 ft | 509 kts | 146° |
| 2026-05-06 19:04 | 31.51234 | -85.58933 | 37069 ft | 509 kts | 146° |
| 2026-05-06 19:04 | 31.45905 | -85.53465 | 37071 ft | 509 kts | 146° |
| 2026-05-06 19:05 | 31.40571 | -85.48000 | 37083 ft | 509 kts | 146° |
| 2026-05-06 19:05 | 31.35245 | -85.42552 | 37096 ft | 509 kts | 146° |
| 2026-05-06 19:06 | 31.29912 | -85.37106 | 37109 ft | 509 kts | 146° |
| 2026-05-06 19:06 | 31.24575 | -85.31665 | 37106 ft | 508 kts | 146° |
| 2026-05-06 19:07 | 31.19242 | -85.26235 | 37096 ft | 508 kts | 146° |
| 2026-05-06 19:07 | 31.13910 | -85.20816 | 37080 ft | 508 kts | 146° |
| 2026-05-06 19:08 | 31.08574 | -85.15401 | 37086 ft | 509 kts | 146° |
| 2026-05-06 19:08 | 31.03204 | -85.09958 | 37078 ft | 508 kts | 146° |
| 2026-05-06 19:09 | 30.97861 | -85.04553 | 37073 ft | 508 kts | 146° |
| 2026-05-06 19:09 | 30.92525 | -84.99162 | 37072 ft | 508 kts | 146° |
| 2026-05-06 19:10 | 30.87180 | -84.93770 | 37072 ft | 508 kts | 146° |
| 2026-05-06 19:10 | 30.81835 | -84.88386 | 37077 ft | 508 kts | 145° |
| 2026-05-06 19:11 | 30.76486 | -84.83011 | 37083 ft | 509 kts | 146° |
| 2026-05-06 19:11 | 30.71131 | -84.77642 | 37082 ft | 508 kts | 145° |
| 2026-05-06 19:12 | 30.65772 | -84.72276 | 37096 ft | 509 kts | 145° |
| 2026-05-06 19:12 | 30.60407 | -84.66913 | 37088 ft | 509 kts | 145° |
| 2026-05-06 19:13 | 30.55038 | -84.61554 | 37098 ft | 509 kts | 145° |
| 2026-05-06 19:13 | 30.49661 | -84.56195 | 37099 ft | 509 kts | 145° |
| 2026-05-06 19:14 | 30.44293 | -84.50854 | 37099 ft | 509 kts | 145° |
| 2026-05-06 19:14 | 30.38914 | -84.45508 | 37082 ft | 509 kts | 145° |
| 2026-05-06 19:15 | 30.33538 | -84.40172 | 37072 ft | 509 kts | 145° |
| 2026-05-06 19:15 | 30.28128 | -84.34802 | 37073 ft | 510 kts | 145° |
| 2026-05-06 19:16 | 30.22740 | -84.29461 | 37073 ft | 509 kts | 145° |
| 2026-05-06 19:16 | 30.17354 | -84.24129 | 37082 ft | 510 kts | 145° |
| 2026-05-06 19:17 | 30.11971 | -84.18808 | 37083 ft | 509 kts | 145° |
| 2026-05-06 19:17 | 30.06587 | -84.13495 | 37083 ft | 509 kts | 145° |
| 2026-05-06 19:18 | 30.01196 | -84.08184 | 37090 ft | 509 kts | 145° |
| 2026-05-06 19:18 | 29.95812 | -84.02886 | 37091 ft | 509 kts | 145° |
| 2026-05-06 19:19 | 29.90420 | -83.97588 | 37098 ft | 509 kts | 145° |
| 2026-05-06 19:19 | 29.85029 | -83.92299 | 37085 ft | 509 kts | 145° |
| 2026-05-06 19:20 | 29.79323 | -83.87686 | 37103 ft | 496 kts | 158° |
| 2026-05-06 19:20 | 29.73278 | -83.83770 | 36866 ft | 497 kts | 157° |
| 2026-05-06 19:20 | 29.70268 | -83.81825 | 36049 ft | 498 kts | 157° |
| 2026-05-06 19:21 | 29.67203 | -83.79852 | 34811 ft | 511 kts | 157° |
| 2026-05-06 19:21 | 29.64096 | -83.77849 | 34084 ft | 511 kts | 156° |
| 2026-05-06 19:21 | 29.61016 | -83.75868 | 33542 ft | 506 kts | 157° |
| 2026-05-06 19:21 | 29.57954 | -83.73898 | 32918 ft | 504 kts | 156° |
| 2026-05-06 19:22 | 29.54896 | -83.71934 | 32310 ft | 501 kts | 156° |
| 2026-05-06 19:22 | 29.51864 | -83.69987 | 31711 ft | 498 kts | 156° |
| 2026-05-06 19:22 | 29.48851 | -83.68054 | 31120 ft | 496 kts | 156° |
| 2026-05-06 19:22 | 29.45846 | -83.66126 | 30488 ft | 493 kts | 156° |
| 2026-05-06 19:23 | 29.43824 | -83.64832 | 30078 ft | 492 kts | 156° |
| 2026-05-06 19:23 | 29.39877 | -83.62305 | 29289 ft | 488 kts | 156° |
| 2026-05-06 19:23 | 29.37880 | -83.61028 | 28858 ft | 488 kts | 156° |
| 2026-05-06 19:23 | 29.34915 | -83.59129 | 28285 ft | 486 kts | 155° |
| 2026-05-06 19:24 | 29.31972 | -83.57249 | 27676 ft | 483 kts | 155° |
| 2026-05-06 19:24 | 29.29046 | -83.55382 | 27068 ft | 481 kts | 155° |
| 2026-05-06 19:24 | 29.26132 | -83.53520 | 26467 ft | 478 kts | 155° |
| 2026-05-06 19:24 | 29.23229 | -83.51668 | 25880 ft | 476 kts | 155° |
| 2026-05-06 19:25 | 29.20343 | -83.49831 | 25194 ft | 475 kts | 154° |
| 2026-05-06 19:25 | 29.17467 | -83.48001 | 24618 ft | 472 kts | 154° |
| 2026-05-06 19:25 | 29.14614 | -83.46186 | 24099 ft | 467 kts | 154° |
| 2026-05-06 19:25 | 29.11783 | -83.44387 | 23494 ft | 464 kts | 154° |
| 2026-05-06 19:26 | 29.08977 | -83.42605 | 23004 ft | 459 kts | 154° |
| 2026-05-06 19:26 | 29.06203 | -83.40843 | 22456 ft | 451 kts | 154° |
| 2026-05-06 19:26 | 29.03489 | -83.39122 | 21897 ft | 443 kts | 154° |
| 2026-05-06 19:26 | 29.00822 | -83.37429 | 21359 ft | 434 kts | 154° |
| 2026-05-06 19:27 | 28.98209 | -83.35770 | 20906 ft | 423 kts | 154° |
| 2026-05-06 19:27 | 28.95656 | -83.34152 | 20462 ft | 418 kts | 154° |
| 2026-05-06 19:27 | 28.93119 | -83.32544 | 19936 ft | 415 kts | 154° |
| 2026-05-06 19:27 | 28.90571 | -83.30930 | 19481 ft | 411 kts | 154° |
| 2026-05-06 19:28 | 28.88090 | -83.29359 | 19036 ft | 406 kts | 154° |
| 2026-05-06 19:28 | 28.85667 | -83.27826 | 18579 ft | 402 kts | 153° |
| 2026-05-06 19:28 | 28.83198 | -83.26264 | 18086 ft | 398 kts | 153° |
| 2026-05-06 19:28 | 28.80782 | -83.24737 | 17605 ft | 395 kts | 153° |
| 2026-05-06 19:29 | 28.78393 | -83.23228 | 17168 ft | 391 kts | 153° |
| 2026-05-06 19:29 | 28.76025 | -83.21734 | 16738 ft | 387 kts | 153° |
| 2026-05-06 19:29 | 28.73688 | -83.20259 | 16310 ft | 382 kts | 153° |
| 2026-05-06 19:29 | 28.71374 | -83.18799 | 15885 ft | 378 kts | 153° |
| 2026-05-06 19:30 | 28.69082 | -83.17355 | 15455 ft | 373 kts | 152° |
| 2026-05-06 19:30 | 28.66827 | -83.15933 | 15044 ft | 369 kts | 152° |
| 2026-05-06 19:30 | 28.64588 | -83.14523 | 14632 ft | 367 kts | 152° |
| 2026-05-06 19:30 | 28.62358 | -83.13120 | 14220 ft | 365 kts | 152° |
| 2026-05-06 19:31 | 28.60144 | -83.11727 | 13809 ft | 363 kts | 152° |
| 2026-05-06 19:31 | 28.57944 | -83.10342 | 13396 ft | 361 kts | 152° |
| 2026-05-06 19:31 | 28.53559 | -83.07588 | 12495 ft | 358 kts | 151° |
| 2026-05-06 19:32 | 28.51383 | -83.06221 | 12111 ft | 356 kts | 151° |
| 2026-05-06 19:32 | 28.49229 | -83.04869 | 11719 ft | 353 kts | 151° |
| 2026-05-06 19:32 | 28.47089 | -83.03527 | 11382 ft | 348 kts | 151° |
| 2026-05-06 19:32 | 28.45040 | -83.02242 | 11221 ft | 332 kts | 151° |
| 2026-05-06 19:33 | 28.43084 | -83.01016 | 11136 ft | 310 kts | 151° |
| 2026-05-06 19:33 | 28.41239 | -82.99860 | 10978 ft | 300 kts | 151° |
| 2026-05-06 19:33 | 28.39410 | -82.98715 | 10617 ft | 299 kts | 151° |
| 2026-05-06 19:33 | 28.37597 | -82.97580 | 10306 ft | 296 kts | 151° |
| 2026-05-06 19:34 | 28.35804 | -82.96458 | 10023 ft | 292 kts | 151° |
| 2026-05-06 19:34 | 28.34035 | -82.95352 | 9734 ft | 289 kts | 151° |
| 2026-05-06 19:34 | 28.32288 | -82.94259 | 9456 ft | 284 kts | 151° |
| 2026-05-06 19:34 | 28.30566 | -82.93182 | 9200 ft | 282 kts | 151° |
| 2026-05-06 19:35 | 28.28908 | -82.91999 | 8893 ft | 282 kts | 137° |
| 2026-05-06 19:35 | 28.27795 | -82.90199 | 8582 ft | 279 kts | 110° |
| 2026-05-06 19:35 | 28.27471 | -82.88066 | 8324 ft | 274 kts | 89° |
| 2026-05-06 19:35 | 28.27499 | -82.85869 | 8077 ft | 276 kts | 89° |
| 2026-05-06 19:36 | 28.27534 | -82.83696 | 7807 ft | 276 kts | 89° |
| 2026-05-06 19:36 | 28.27577 | -82.81525 | 7539 ft | 275 kts | 89° |
| 2026-05-06 19:36 | 28.27626 | -82.79368 | 7274 ft | 274 kts | 89° |
| 2026-05-06 19:36 | 28.27678 | -82.77212 | 7022 ft | 272 kts | 89° |
| 2026-05-06 19:37 | 28.27731 | -82.75070 | 6753 ft | 272 kts | 89° |
| 2026-05-06 19:37 | 28.27786 | -82.72933 | 6485 ft | 271 kts | 89° |
| 2026-05-06 19:37 | 28.27841 | -82.70794 | 6225 ft | 270 kts | 89° |
| 2026-05-06 19:37 | 28.27896 | -82.68672 | 5949 ft | 268 kts | 89° |
| 2026-05-06 19:38 | 28.27949 | -82.66579 | 5698 ft | 264 kts | 89° |
| 2026-05-06 19:38 | 28.28001 | -82.64514 | 5442 ft | 260 kts | 89° |
| 2026-05-06 19:38 | 28.28051 | -82.62480 | 5197 ft | 255 kts | 89° |
| 2026-05-06 19:38 | 28.27997 | -82.60494 | 4931 ft | 251 kts | 105° |
| 2026-05-06 19:39 | 28.27140 | -82.58838 | 4651 ft | 240 kts | 136° |
| 2026-05-06 19:39 | 28.25901 | -82.57680 | 4528 ft | 226 kts | 145° |
| 2026-05-06 19:39 | 28.24603 | -82.56672 | 4357 ft | 226 kts | 146° |
| 2026-05-06 19:39 | 28.23308 | -82.55680 | 4198 ft | 225 kts | 146° |
| 2026-05-06 19:40 | 28.22019 | -82.54693 | 4022 ft | 224 kts | 146° |
| 2026-05-06 19:40 | 28.20732 | -82.53707 | 3932 ft | 223 kts | 146° |
| 2026-05-06 19:40 | 28.19434 | -82.52732 | 3718 ft | 225 kts | 151° |
| 2026-05-06 19:40 | 28.17944 | -82.52238 | 3430 ft | 224 kts | 175° |
| 2026-05-06 19:41 | 28.16428 | -82.52212 | 3380 ft | 210 kts | 180° |
| 2026-05-06 19:41 | 28.14995 | -82.52260 | 3205 ft | 201 kts | 181° |
| 2026-05-06 19:41 | 28.13630 | -82.52309 | 3055 ft | 191 kts | 181° |
| 2026-05-06 19:41 | 28.12300 | -82.52345 | 2521 ft | 201 kts | 180° |
| 2026-05-06 19:42 | 28.10855 | -82.52396 | 2077 ft | 205 kts | 182° |
| 2026-05-06 19:42 | 28.09515 | -82.52449 | 1975 ft | 180 kts | 182° |
| 2026-05-06 19:42 | 28.08299 | -82.52491 | 1816 ft | 174 kts | 182° |
| 2026-05-06 19:42 | 28.07081 | -82.52534 | 1655 ft | 174 kts | 182° |
| 2026-05-06 19:43 | 28.05908 | -82.52575 | 1442 ft | 165 kts | 182° |
| 2026-05-06 19:43 | 28.04788 | -82.52613 | 1261 ft | 159 kts | 184° |
| 2026-05-06 19:43 | 28.03718 | -82.52648 | 1080 ft | 150 kts | 184° |
| 2026-05-06 19:43 | 28.02667 | -82.52688 | 836 ft | 146 kts | 183° |
| 2026-05-06 19:44 | 28.01654 | -82.52718 | 635 ft | 146 kts | 183° |
| 2026-05-06 19:44 | 28.00648 | -82.52755 | 446 ft | 144 kts | 183° |
| 2026-05-06 19:44 | 27.99656 | -82.52790 | 259 ft | 145 kts | 182° |
| 2026-05-06 19:44 | 27.98650 | -82.52817 | 65 ft | 144 kts | 182° |
| 2026-05-06 19:45 | 27.97728 | -82.52854 | 41 ft | 102 kts | 181° |
| 2026-05-06 19:45 | 27.97297 | -82.52876 | 41 ft | 34 kts | 187° |
| 2026-05-06 19:45 | 27.97203 | -82.52977 | 43 ft | 11 kts | 305° |
| 2026-05-06 19:45 | 27.97289 | -82.52996 | 42 ft | 18 kts | 360° |
| 2026-05-06 19:46 | 27.97440 | -82.52991 | 42 ft | 24 kts | 2° |
| 2026-05-06 19:46 | 27.97614 | -82.52983 | 42 ft | 26 kts | 1° |
| 2026-05-06 19:46 | 27.97804 | -82.52982 | 42 ft | 28 kts | 0° |
| 2026-05-06 19:46 | 27.97989 | -82.52978 | 44 ft | 21 kts | 350° |
| 2026-05-06 19:47 | 27.98087 | -82.53020 | 45 ft | 14 kts | 338° |
| 2026-05-06 19:47 | 27.98160 | -82.53042 | 45 ft | 8 kts | 354° |
| 2026-05-06 19:47 | 27.98224 | -82.53043 | 45 ft | 6 kts | 4° |
| 2026-05-06 19:47 | 27.98241 | -82.53043 | 45 ft | 7 kts | 352° |
| 2026-05-06 19:48 | 27.98261 | -82.53059 | 45 ft | 0 kts | 290° |
| 2026-05-06 19:48 | 27.98259 | -82.53095 | 45 ft | 9 kts | 270° |
| 2026-05-06 19:48 | 27.98260 | -82.53121 | 45 ft | 0 kts | 274° |